createdAt,value
2022-12-15T00:00:21.564Z,101357.94
2022-12-15T00:03:07.374Z,101357.94
2022-12-15T00:05:52.969Z,101366.63
2022-12-15T00:08:38.721Z,101376.13
2022-12-15T00:11:24.371Z,101372.59
2022-12-15T00:14:11.479Z,101367.56
2022-12-15T00:16:56.964Z,101365.16
2022-12-15T00:19:42.568Z,101364.41
2022-12-15T00:22:27.753Z,101374.06
2022-12-15T00:25:13.405Z,101373.41
2022-12-15T00:27:58.923Z,101365.88
2022-12-15T00:30:49.766Z,101372.16
2022-12-15T00:33:35.994Z,101379.13
2022-12-15T00:36:22.154Z,101369.94
2022-12-15T00:38:50.203Z,101376.22
2022-12-15T00:41:19.872Z,101376.97
2022-12-15T00:43:48.468Z,101373.53
2022-12-15T00:46:35.537Z,101378.81
2022-12-15T00:49:04.065Z,101371.97
2022-12-15T00:51:49.629Z,101369.44
2022-12-15T00:54:35.203Z,101370.28
2022-12-15T00:57:20.986Z,101377.16
2022-12-15T01:00:06.767Z,101366.78
2022-12-15T01:02:53.845Z,101370.38
2022-12-15T01:05:39.307Z,101373.06
2022-12-15T01:08:24.634Z,101373.13
2022-12-15T01:11:09.895Z,101367.94
2022-12-15T01:13:55.667Z,101365.28
2022-12-15T01:16:41.398Z,101366.22
2022-12-15T01:19:28.549Z,101366.28
2022-12-15T01:21:56.710Z,101367.31
2022-12-15T01:24:25.002Z,101362.28
2022-12-15T01:26:53.157Z,101362.28
2022-12-15T01:29:21.366Z,101368.41
2022-12-15T01:31:49.806Z,101356.44
2022-12-15T01:34:22.849Z,101359.84
2022-12-15T01:36:51.062Z,101352.06
2022-12-15T01:39:19.233Z,101352.19
2022-12-15T01:41:46.497Z,101352.28
2022-12-15T01:44:24.222Z,101353.00
2022-12-15T01:46:55.575Z,101347.91
2022-12-15T01:49:26.681Z,101353.22
2022-12-15T01:52:00.029Z,101352.44
2022-12-15T01:54:32.384Z,101349.84
2022-12-15T01:57:04.458Z,101356.06
2022-12-15T01:59:36.924Z,101358.66
2022-12-15T02:02:05.632Z,101367.31
2022-12-15T02:04:35.591Z,101354.38
2022-12-15T02:07:03.826Z,101363.91
2022-12-15T02:09:32.328Z,101364.00
2022-12-15T02:12:11.283Z,101364.00
2022-12-15T02:14:54.525Z,101361.50
2022-12-15T02:17:36.773Z,101358.00
2022-12-15T02:20:34.598Z,101360.75
2022-12-15T02:23:29.236Z,101368.53
2022-12-15T02:26:19.032Z,101373.81
2022-12-15T02:28:59.360Z,101376.41
2022-12-15T02:31:55.100Z,101383.41
2022-12-15T02:34:31.723Z,101379.09
2022-12-15T02:37:02.961Z,101382.56
2022-12-15T02:39:30.860Z,101386.09
2022-12-15T02:41:59.071Z,101381.94
2022-12-15T02:44:32.338Z,101372.47
2022-12-15T02:47:18.396Z,101384.59
2022-12-15T02:50:00.660Z,101378.56
2022-12-15T02:52:48.248Z,101375.97
2022-12-15T02:55:21.586Z,101367.84
2022-12-15T02:57:56.988Z,101365.81
2022-12-15T03:00:25.664Z,101368.34
2022-12-15T03:02:57.471Z,101371.00
2022-12-15T03:05:26.506Z,101373.28
2022-12-15T03:07:56.154Z,101375.31
2022-12-15T03:10:26.936Z,101369.38
2022-12-15T03:12:55.765Z,101374.72
2022-12-15T03:15:24.024Z,101373.22
2022-12-15T03:17:52.546Z,101368.63
2022-12-15T03:20:22.073Z,101370.63
2022-12-15T03:22:50.286Z,101367.53
2022-12-15T03:25:18.523Z,101371.41
2022-12-15T03:27:47.662Z,101364.56
2022-12-15T03:30:16.568Z,101367.22
2022-12-15T03:32:44.791Z,101371.66
2022-12-15T03:35:13.697Z,101367.66
2022-12-15T03:37:43.838Z,101363.31
2022-12-15T03:40:14.211Z,101363.38
2022-12-15T03:42:51.348Z,101368.75
2022-12-15T03:45:21.422Z,101372.06
2022-12-15T03:47:50.507Z,101368.75
2022-12-15T03:50:20.988Z,101371.34
2022-12-15T03:52:53.681Z,101373.94
2022-12-15T03:55:22.485Z,101371.41
2022-12-15T03:57:51.120Z,101377.59
2022-12-15T04:00:20.767Z,101377.50
2022-12-15T04:02:50.537Z,101373.25
2022-12-15T04:05:20.482Z,101377.59
2022-12-15T04:07:48.601Z,101371.59
2022-12-15T04:10:18.606Z,101360.47
2022-12-15T04:12:46.698Z,101358.72
2022-12-15T04:15:15.273Z,101355.38
2022-12-15T04:17:44.016Z,101362.22
2022-12-15T04:20:13.077Z,101357.88
2022-12-15T04:22:43.340Z,101357.03
2022-12-15T04:25:30.697Z,101357.97
2022-12-15T04:28:17.919Z,101371.84
2022-12-15T04:31:07.610Z,101379.72
2022-12-15T04:33:54.463Z,101374.59
2022-12-15T04:36:40.819Z,101361.63
2022-12-15T04:39:26.706Z,101365.16
2022-12-15T04:42:16.194Z,101360.13
2022-12-15T04:45:03.612Z,101366.22
2022-12-15T04:47:49.400Z,101356.72
2022-12-15T04:50:35.341Z,101351.63
2022-12-15T04:53:28.212Z,101353.28
2022-12-15T04:56:18.389Z,101350.78
2022-12-15T04:59:05.243Z,101356.97
2022-12-15T05:01:52.685Z,101356.97
2022-12-15T05:04:38.383Z,101344.00
2022-12-15T05:07:24.034Z,101343.16
2022-12-15T05:10:14.714Z,101351.97
2022-12-15T05:13:01.771Z,101353.63
2022-12-15T05:15:47.736Z,101347.63
2022-12-15T05:18:34.883Z,101351.19
2022-12-15T05:21:20.615Z,101359.06
2022-12-15T05:24:05.857Z,101363.22
2022-12-15T05:26:53.274Z,101368.41
2022-12-15T05:29:39.337Z,101364.03
2022-12-15T05:32:08.109Z,101359.63
2022-12-15T05:34:38.544Z,101360.13
2022-12-15T05:37:07.615Z,101360.56
2022-12-15T05:39:35.824Z,101358.13
2022-12-15T05:42:04.644Z,101358.22
2022-12-15T05:44:32.800Z,101352.94
2022-12-15T05:47:00.951Z,101351.19
2022-12-15T05:49:29.156Z,101354.72
2022-12-15T05:51:58.721Z,101359.88
2022-12-15T05:54:26.830Z,101365.06
2022-12-15T05:56:55.009Z,101363.41
2022-12-15T05:59:23.432Z,101358.22
2022-12-15T06:01:51.654Z,101363.41
2022-12-15T06:04:20.069Z,101356.56
2022-12-15T06:06:48.332Z,101359.16
2022-12-15T06:09:17.865Z,101361.56
2022-12-15T06:11:46.060Z,101361.47
2022-12-15T06:14:14.307Z,101361.56
2022-12-15T06:16:50.026Z,101363.22
2022-12-15T06:19:20.019Z,101362.47
2022-12-15T06:21:48.153Z,101367.75
2022-12-15T06:24:17.784Z,101370.34
2022-12-15T06:26:45.955Z,101366.91
2022-12-15T06:29:18.568Z,101365.41
2022-12-15T06:31:47.294Z,101365.47
2022-12-15T06:34:17.768Z,101365.56
2022-12-15T06:36:46.193Z,101363.06
2022-12-15T06:39:16.299Z,101369.06
2022-12-15T06:41:46.766Z,101361.22
2022-12-15T06:44:16.221Z,101365.56
2022-12-15T06:46:45.809Z,101366.31
2022-12-15T06:49:14.504Z,101370.66
2022-12-15T06:51:44.180Z,101373.25
2022-12-15T06:54:12.695Z,101373.34
2022-12-15T06:56:44.347Z,101374.16
2022-12-15T06:59:14.790Z,101373.34
2022-12-15T07:01:43.316Z,101374.94
2022-12-15T07:04:12.097Z,101375.00
2022-12-15T07:06:42.498Z,101375.09
2022-12-15T07:09:16.168Z,101375.91
2022-12-15T07:11:45.213Z,101375.91
2022-12-15T07:14:14.770Z,101374.16
2022-12-15T07:16:43.054Z,101374.25
2022-12-15T07:19:13.087Z,101374.25
2022-12-15T07:21:42.610Z,101373.44
2022-12-15T07:24:13.099Z,101374.25
2022-12-15T07:26:41.395Z,101373.91
2022-12-15T07:29:09.566Z,101376.75
2022-12-15T07:31:39.359Z,101374.94
2022-12-15T07:34:07.798Z,101370.75
2022-12-15T07:36:36.114Z,101376.66
2022-12-15T07:39:05.872Z,101374.06
2022-12-15T07:41:35.515Z,101377.59
2022-12-15T07:44:03.649Z,101381.84
2022-12-15T07:46:31.841Z,101387.03
2022-12-15T07:49:01.390Z,101381.94
2022-12-15T07:51:29.669Z,101386.28
2022-12-15T07:53:57.887Z,101394.97
2022-12-15T07:56:26.085Z,101393.31
2022-12-15T07:58:54.306Z,101397.72
2022-12-15T08:01:22.672Z,101405.56
2022-12-15T08:03:51.138Z,101409.00
2022-12-15T08:06:21.157Z,101414.19
2022-12-15T08:08:50.314Z,101415.16
2022-12-15T08:11:20.272Z,101405.81
2022-12-15T08:14:06.212Z,101418.75
2022-12-15T08:16:37.563Z,101425.50
2022-12-15T08:19:06.604Z,101418.56
2022-12-15T08:21:36.467Z,101415.84
2022-12-15T08:24:04.947Z,101406.25
2022-12-15T08:26:33.185Z,101422.69
2022-12-15T08:29:48.919Z,101423.75
2022-12-15T08:31:54.017Z,101425.50
2022-12-15T08:34:22.722Z,101429.84
2022-12-15T08:36:52.297Z,101437.56
2022-12-15T08:39:20.555Z,101434.13
2022-12-15T08:41:48.830Z,101432.38
2022-12-15T08:44:17.459Z,101437.56
2022-12-15T08:46:45.893Z,101429.84
2022-12-15T08:49:18.048Z,101435.03
2022-12-15T08:51:51.546Z,101427.28
2022-12-15T08:54:20.717Z,101431.38
2022-12-15T08:56:48.945Z,101427.03
2022-12-15T08:59:17.055Z,101437.31
2022-12-15T09:01:45.503Z,101438.16
2022-12-15T09:04:13.936Z,101431.13
2022-12-15T09:06:42.330Z,101429.38
2022-12-15T09:09:14.012Z,101434.56
2022-12-15T09:11:42.226Z,101434.41
2022-12-15T09:14:10.544Z,101441.25
2022-12-15T09:16:38.843Z,101432.56
2022-12-15T09:19:08.410Z,101446.28
2022-12-15T09:21:37.118Z,101452.13
2022-12-15T09:24:06.105Z,101450.38
2022-12-15T09:26:36.179Z,101460.91
2022-12-15T09:29:04.478Z,101460.75
2022-12-15T09:31:34.858Z,101464.03
2022-12-15T09:34:03.959Z,101464.88
2022-12-15T09:36:33.327Z,101464.78
2022-12-15T09:39:03.149Z,101462.09
2022-12-15T09:41:33.371Z,101463.69
2022-12-15T09:44:06.160Z,101473.97
2022-12-15T09:46:53.042Z,101472.22
2022-12-15T09:49:36.047Z,101475.72
2022-12-15T09:52:11.315Z,101481.50
2022-12-15T09:54:41.982Z,101477.91
2022-12-15T09:57:20.426Z,101482.94
2022-12-15T10:00:03.708Z,101481.09
2022-12-15T10:02:55.791Z,101481.69
2022-12-15T10:06:07.184Z,101476.25
2022-12-15T10:08:32.380Z,101487.19
2022-12-15T10:11:02.079Z,101481.75
2022-12-15T10:13:39.603Z,101489.28
2022-12-15T10:16:21.852Z,101486.69
2022-12-15T10:19:01.919Z,101483.84
2022-12-15T10:21:33.094Z,101478.50
2022-12-15T10:24:14.227Z,101481.75
2022-12-15T10:26:43.958Z,101497.00
2022-12-15T10:29:26.528Z,101491.53
2022-12-15T10:32:01.470Z,101499.91
2022-12-15T10:34:33.384Z,101502.31
2022-12-15T10:37:01.673Z,101491.88
2022-12-15T10:39:39.526Z,101496.84
2022-12-15T10:42:21.112Z,101495.78
2022-12-15T10:44:51.286Z,101490.59
2022-12-15T10:47:23.968Z,101493.00
2022-12-15T10:49:52.342Z,101498.09
2022-12-15T10:52:25.171Z,101495.25
2022-12-15T10:54:55.551Z,101493.31
2022-12-15T10:57:27.988Z,101499.91
2022-12-15T10:59:57.617Z,101491.88
2022-12-15T11:02:37.083Z,101491.50
2022-12-15T11:05:16.405Z,101492.94
2022-12-15T11:07:47.660Z,101484.97
2022-12-15T11:10:17.926Z,101482.09
2022-12-15T11:15:50.813Z,101494.09
2022-12-15T11:18:34.206Z,101501.63
2022-12-15T11:21:06.644Z,101500.13
2022-12-15T11:23:57.250Z,101510.22
2022-12-15T11:26:37.395Z,101500.94
2022-12-15T11:29:16.970Z,101498.91
2022-12-15T11:31:48.801Z,101495.94
2022-12-15T11:34:21.820Z,101485.09
2022-12-15T11:37:32.440Z,101489.84
2022-12-15T11:40:28.906Z,101495.50
2022-12-15T11:43:11.199Z,101495.91
2022-12-15T11:45:49.000Z,101484.19
2022-12-15T11:48:19.211Z,101497.84
2022-12-15T11:50:55.179Z,101492.38
2022-12-15T11:53:56.763Z,101487.81
2022-12-15T11:56:32.555Z,101478.81
2022-12-15T11:59:41.584Z,101481.22
2022-12-15T12:02:37.705Z,101483.72
2022-12-15T12:05:44.587Z,101475.47
2022-12-15T12:08:29.346Z,101470.91
2022-12-15T12:11:05.311Z,101472.38
2022-12-15T12:13:45.022Z,101471.66
2022-12-15T12:16:28.322Z,101472.47
2022-12-15T12:19:02.935Z,101480.09
2022-12-15T12:21:37.060Z,101474.03
2022-12-15T12:24:15.097Z,101481.00
2022-12-15T12:26:48.730Z,101472.03
2022-12-15T12:29:22.806Z,101474.69
2022-12-15T12:32:05.450Z,101478.13
2022-12-15T12:34:52.877Z,101473.22
2022-12-15T12:37:44.219Z,101472.38
2022-12-15T12:40:24.030Z,101480.47
2022-12-15T12:42:55.781Z,101473.50
2022-12-15T12:45:30.378Z,101475.47
2022-12-15T12:48:07.514Z,101486.88
2022-12-15T12:50:35.991Z,101473.78
2022-12-15T12:53:04.914Z,101479.84
2022-12-15T12:55:41.140Z,101483.34
2022-12-15T12:58:33.860Z,101476.31
2022-12-15T13:01:08.479Z,101480.47
2022-12-15T13:03:40.173Z,101481.28
2022-12-15T13:06:22.727Z,101475.09
2022-12-15T13:08:52.820Z,101477.41
2022-12-15T13:11:58.144Z,101480.72
2022-12-15T13:14:37.669Z,101474.69
2022-12-15T13:17:28.394Z,101473.69
2022-12-15T13:20:26.870Z,101484.09
2022-12-15T13:22:57.113Z,101482.97
2022-12-15T13:25:48.581Z,101479.53
2022-12-15T13:28:46.214Z,101480.25
2022-12-15T13:31:49.070Z,101484.53
2022-12-15T13:34:24.280Z,101483.69
2022-12-15T13:37:02.305Z,101481.91
2022-12-15T13:39:51.834Z,101477.56
2022-12-15T13:42:56.144Z,101469.84
2022-12-15T13:45:36.750Z,101478.50
2022-12-15T13:48:16.926Z,101476.81
2022-12-15T13:50:53.403Z,101471.63
2022-12-15T13:53:25.045Z,101475.16
2022-12-15T13:56:12.263Z,101482.97
2022-12-15T13:58:44.833Z,101484.81
2022-12-15T14:01:27.187Z,101494.47
2022-12-15T14:04:04.963Z,101488.53
2022-12-15T14:06:37.317Z,101483.31
2022-12-15T14:09:06.641Z,101484.16
2022-12-15T14:11:52.428Z,101478.22
2022-12-15T14:14:24.525Z,101468.84
2022-12-15T14:16:55.759Z,101478.34
2022-12-15T14:19:25.542Z,101474.16
2022-12-15T14:21:55.671Z,101469.88
2022-12-15T14:24:45.077Z,101470.91
2022-12-15T14:27:24.238Z,101459.03
2022-12-15T14:30:11.553Z,101455.56
2022-12-15T14:32:40.688Z,101457.34
2022-12-15T14:35:15.963Z,101455.69
2022-12-15T14:37:44.868Z,101450.50
2022-12-15T14:40:16.429Z,101447.88
2022-12-15T14:42:45.596Z,101451.31
2022-12-15T14:45:21.202Z,101446.94
2022-12-15T14:50:47.849Z,101437.31
2022-12-15T14:53:19.550Z,101453.84
2022-12-15T14:55:47.872Z,101443.63
2022-12-15T14:58:32.308Z,101445.47
2022-12-15T15:01:02.193Z,101445.47
2022-12-15T15:03:13.457Z,101489.34
2022-12-15T15:03:15.699Z,101442.69
2022-12-15T15:03:38.445Z,101449.00
2022-12-15T15:06:18.818Z,101449.09
2022-12-15T15:08:49.005Z,101456.25
2022-12-15T15:11:29.601Z,101464.16
2022-12-15T15:14:05.595Z,101459.13
2022-12-15T15:16:33.936Z,101458.41
2022-12-15T15:19:04.611Z,101459.31
2022-12-15T15:21:38.098Z,101462.84
2022-12-15T15:24:23.984Z,101463.78
2022-12-15T15:26:52.470Z,101459.63
2022-12-15T15:29:41.963Z,101465.81
2022-12-15T15:32:17.247Z,101475.28
2022-12-15T15:34:47.339Z,101477.06
2022-12-15T15:37:20.304Z,101481.31
2022-12-15T15:39:49.934Z,101467.59
2022-12-15T15:42:18.706Z,101471.13
2022-12-15T15:44:47.011Z,101472.03
2022-12-15T15:47:22.821Z,101469.63
2022-12-15T15:49:52.181Z,101480.22
2022-12-15T15:52:22.357Z,101481.25
2022-12-15T15:54:51.053Z,101488.28
2022-12-15T15:57:19.969Z,101490.31
2022-12-15T15:59:49.578Z,101500.03
2022-12-15T16:02:18.034Z,101501.91
2022-12-15T16:04:46.318Z,101500.41
2022-12-15T16:07:21.585Z,101503.19
2022-12-15T16:09:51.357Z,101496.31
2022-12-15T16:12:27.724Z,101497.38
2022-12-15T16:14:56.189Z,101501.91
2022-12-15T16:17:25.595Z,101499.47
2022-12-15T16:19:54.034Z,101492.72
2022-12-15T16:22:23.373Z,101501.50
2022-12-15T16:24:53.022Z,101508.44
2022-12-15T16:27:21.153Z,101512.97
2022-12-15T16:29:49.421Z,101508.81
2022-12-15T16:32:17.776Z,101519.28
2022-12-15T16:34:45.925Z,101514.28
2022-12-15T16:37:26.246Z,101509.25
2022-12-15T16:39:55.933Z,101528.44
2022-12-15T16:42:24.026Z,101523.53
2022-12-15T16:44:52.358Z,101511.53
2022-12-15T16:47:20.471Z,101514.28
2022-12-15T16:49:48.664Z,101510.97
2022-12-15T16:52:21.026Z,101513.66
2022-12-15T16:54:50.456Z,101511.13
2022-12-15T16:57:20.245Z,101511.22
2022-12-15T16:59:49.964Z,101502.50
2022-12-15T17:02:27.161Z,101514.66
2022-12-15T17:04:56.108Z,101508.63
2022-12-15T17:07:27.795Z,101512.16
2022-12-15T17:09:56.624Z,101518.34
2022-12-15T17:12:26.364Z,101508.81
2022-12-15T17:14:54.659Z,101520.88
2022-12-15T17:17:22.852Z,101511.31
2022-12-15T17:20:27.580Z,101509.56
2022-12-15T17:22:40.334Z,101519.84
2022-12-15T17:25:16.834Z,101511.97
2022-12-15T17:27:47.214Z,101514.56
2022-12-15T17:30:16.933Z,101522.44
2022-12-15T17:32:45.862Z,101524.22
2022-12-15T17:35:14.114Z,101527.72
2022-12-15T17:37:42.788Z,101521.59
2022-12-15T17:40:18.918Z,101520.88
2022-12-15T17:42:49.263Z,101519.19
2022-12-15T17:45:21.063Z,101514.81
2022-12-15T17:47:50.151Z,101516.59
2022-12-15T17:50:19.078Z,101520.88
2022-12-15T17:52:49.622Z,101514.00
2022-12-15T17:55:21.193Z,101513.16
2022-12-15T17:57:51.005Z,101509.63
2022-12-15T18:00:22.825Z,101504.44
2022-12-15T18:02:51.211Z,101512.31
2022-12-15T18:05:20.126Z,101508.06
2022-12-15T18:07:53.557Z,101511.50
2022-12-15T18:10:25.857Z,101502.88
2022-12-15T18:12:55.409Z,101508.06
2022-12-15T18:15:25.628Z,101508.91
2022-12-15T18:17:54.011Z,101506.41
2022-12-15T18:20:23.015Z,101508.63
2022-12-15T18:22:52.499Z,101509.63
2022-12-15T18:25:23.437Z,101503.09
2022-12-15T18:27:51.611Z,101505.31
2022-12-15T18:30:23.415Z,101513.25
2022-12-15T18:32:55.846Z,101517.16
2022-12-15T18:35:31.642Z,101515.69
2022-12-15T18:37:59.860Z,101514.44
2022-12-15T18:40:30.179Z,101508.47
2022-12-15T18:42:58.376Z,101515.53
2022-12-15T18:45:28.535Z,101515.53
2022-12-15T18:47:56.639Z,101514.69
2022-12-15T18:50:26.639Z,101514.69
2022-12-15T18:52:59.574Z,101513.00
2022-12-15T18:55:31.185Z,101512.94
2022-12-15T18:58:01.884Z,101514.69
2022-12-15T19:00:32.561Z,101511.34
2022-12-15T19:03:01.370Z,101516.63
2022-12-15T19:05:30.155Z,101515.03
2022-12-15T19:08:01.313Z,101517.72
2022-12-15T19:10:32.024Z,101511.78
2022-12-15T19:13:00.328Z,101523.06
2022-12-15T19:15:28.608Z,101510.28
2022-12-15T19:18:15.730Z,101519.81
2022-12-15T19:21:01.688Z,101511.28
2022-12-15T19:23:30.240Z,101516.72
2022-12-15T19:25:58.898Z,101517.38
2022-12-15T19:28:27.183Z,101514.88
2022-12-15T19:30:55.500Z,101509.75
2022-12-15T19:33:25.374Z,101513.53
2022-12-15T19:35:55.620Z,101503.22
2022-12-15T19:38:27.481Z,101508.94
2022-12-15T19:40:56.781Z,101508.19
2022-12-15T19:43:26.019Z,101510.88
2022-12-15T19:45:55.118Z,101522.91
2022-12-15T19:48:24.833Z,101529.03
2022-12-15T19:50:54.913Z,101529.09
2022-12-15T19:53:26.318Z,101529.09
2022-12-15T19:55:55.440Z,101529.94
2022-12-15T19:58:30.259Z,101521.41
2022-12-15T20:01:00.784Z,101521.41
2022-12-15T20:03:31.839Z,101525.78
2022-12-15T20:06:02.082Z,101521.50
2022-12-15T20:08:34.879Z,101524.94
2022-12-15T20:11:03.773Z,101520.75
2022-12-15T20:13:32.503Z,101519.06
2022-12-15T20:16:00.873Z,101527.69
2022-12-15T20:18:31.024Z,101529.44
2022-12-15T20:21:01.467Z,101528.59
2022-12-15T20:23:32.232Z,101527.94
2022-12-15T20:26:01.307Z,101527.94
2022-12-15T20:28:31.223Z,101530.63
2022-12-15T20:30:59.816Z,101535.81
2022-12-15T20:33:28.872Z,101542.66
2022-12-15T20:35:58.678Z,101536.63
2022-12-15T20:38:30.576Z,101540.16
2022-12-15T20:41:00.294Z,101533.22
2022-12-15T20:43:32.177Z,101531.44
2022-12-15T20:46:05.117Z,101525.50
2022-12-15T20:48:35.239Z,101532.38
2022-12-15T20:51:09.314Z,101532.44
2022-12-15T20:53:39.145Z,101532.44
2022-12-15T20:56:08.742Z,101531.59
2022-12-15T20:58:39.475Z,101534.19
2022-12-15T21:01:18.174Z,101538.56
2022-12-15T21:03:47.280Z,101541.16
2022-12-15T21:06:18.027Z,101542.06
2022-12-15T21:08:46.449Z,101542.13
2022-12-15T21:11:18.615Z,101550.84
2022-12-15T21:13:48.280Z,101545.75
2022-12-15T21:16:19.794Z,101542.41
2022-12-15T21:19:19.779Z,101545.91
2022-12-15T21:21:41.714Z,101543.31
2022-12-15T21:24:16.663Z,101546.81
2022-12-15T21:26:45.027Z,101558.13
2022-12-15T21:29:14.882Z,101553.03
2022-12-15T21:31:43.475Z,101549.50
2022-12-15T21:34:12.834Z,101553.03
2022-12-15T21:36:44.690Z,101548.69
2022-12-15T21:39:16.744Z,101553.03
2022-12-15T21:41:45.334Z,101553.03
2022-12-15T21:44:15.238Z,101548.81
2022-12-15T21:46:43.495Z,101547.06
2022-12-15T21:49:20.721Z,101546.16
2022-12-15T21:51:53.698Z,101539.28
2022-12-15T21:54:30.652Z,101539.28
2022-12-15T21:56:59.781Z,101542.91
2022-12-15T21:59:30.630Z,101535.53
2022-12-15T22:02:00.662Z,101532.44
2022-12-15T22:04:32.731Z,101540.38
2022-12-15T22:07:02.869Z,101530.94
2022-12-15T22:09:31.084Z,101521.41
2022-12-15T22:11:59.551Z,101528.25
2022-12-15T22:14:30.644Z,101526.56
2022-12-15T22:16:59.965Z,101528.44
2022-12-15T22:19:28.697Z,101528.50
2022-12-15T22:21:57.210Z,101530.34
2022-12-15T22:24:26.760Z,101529.44
2022-12-15T22:26:54.982Z,101529.16
2022-12-15T22:29:24.271Z,101527.69
2022-12-15T22:31:52.775Z,101528.25
2022-12-15T22:34:25.033Z,101521.00
2022-12-15T22:36:53.388Z,101520.16
2022-12-15T22:39:23.280Z,101519.88
2022-12-15T22:41:54.091Z,101523.56
2022-12-15T22:44:24.939Z,101525.25
2022-12-15T22:46:54.740Z,101530.50
2022-12-15T22:49:26.185Z,101546.81
2022-12-15T22:51:54.943Z,101539.09
2022-12-15T22:54:25.375Z,101533.91
2022-12-15T22:56:58.762Z,101545.97
2022-12-15T22:59:31.033Z,101548.63
2022-12-15T23:01:59.557Z,101539.09
2022-12-15T23:04:28.002Z,101540.03
2022-12-15T23:06:56.284Z,101543.44
2022-12-15T23:09:24.540Z,101552.06
2022-12-15T23:11:53.264Z,101540.84
2022-12-15T23:14:43.667Z,101545.16
2022-12-15T23:17:11.873Z,101540.03
2022-12-15T23:19:44.866Z,101547.81
2022-12-15T23:22:13.214Z,101552.16
2022-12-15T23:24:41.561Z,101546.13
2022-12-15T23:27:12.672Z,101547.88
2022-12-15T23:29:41.145Z,101545.31
2022-12-15T23:32:09.332Z,101548.81
2022-12-15T23:34:37.586Z,101541.94
2022-12-15T23:37:05.865Z,101535.09
2022-12-15T23:39:34.190Z,101537.69
2022-12-15T23:42:02.342Z,101550.63
2022-12-15T23:44:31.958Z,101551.47
2022-12-15T23:47:00.245Z,101549.88
2022-12-15T23:49:28.427Z,101549.94
2022-12-15T23:51:56.798Z,101549.22
2022-12-15T23:54:24.966Z,101555.31
2022-12-15T23:56:53.169Z,101556.16
2022-12-15T23:59:22.977Z,101554.47
